createdAt,value
2022-09-25T00:03:48.258Z,86.14
2022-09-25T00:07:49.964Z,86.47
2022-09-25T00:11:51.743Z,86.37
2022-09-25T00:15:56.256Z,86.36
2022-09-25T00:19:57.901Z,86.74
2022-09-25T00:24:01.248Z,86.78
2022-09-25T00:28:02.958Z,86.61
2022-09-25T00:32:08.281Z,86.61
2022-09-25T00:36:10.888Z,87.11
2022-09-25T00:40:12.656Z,87.05
2022-09-25T00:45:08.706Z,86.90
2022-09-25T00:49:17.426Z,87.15
2022-09-25T00:53:24.328Z,87.46
2022-09-25T00:57:31.166Z,87.94
2022-09-25T01:01:32.954Z,88.11
2022-09-25T01:05:38.453Z,88.64
2022-09-25T01:09:41.476Z,88.90
2022-09-25T01:13:43.288Z,88.99
2022-09-25T01:18:17.442Z,89.51
2022-09-25T01:22:36.759Z,89.53
2022-09-25T01:27:10.130Z,89.70
2022-09-25T01:31:20.166Z,89.06
2022-09-25T01:35:22.301Z,88.92
2022-09-25T01:39:35.450Z,89.15
2022-09-25T01:43:41.634Z,89.01
2022-09-25T01:47:47.211Z,89.07
2022-09-25T01:51:55.938Z,89.07
2022-09-25T01:56:02.897Z,89.47
2022-09-25T02:00:14.372Z,89.52
2022-09-25T02:04:25.199Z,89.30
2022-09-25T02:08:54.097Z,89.21
2022-09-25T02:13:05.750Z,89.39
2022-09-25T02:17:12.664Z,89.04
2022-09-25T02:21:25.255Z,89.58
2022-09-25T02:25:59.790Z,89.30
2022-09-25T02:30:01.744Z,89.06
2022-09-25T02:34:04.480Z,89.54
2022-09-25T02:38:06.241Z,89.17
2022-09-25T02:42:36.984Z,89.12
2022-09-25T02:47:03.467Z,89.54
2022-09-25T02:51:08.040Z,89.40
2022-09-25T02:55:17.637Z,89.47
2022-09-25T02:59:34.089Z,89.68
2022-09-25T03:03:38.372Z,89.47
2022-09-25T03:07:59.234Z,89.41
2022-09-25T03:12:03.288Z,89.42
2022-09-25T03:16:20.418Z,89.25
2022-09-25T03:20:22.077Z,89.20
2022-09-25T03:24:23.857Z,89.32
2022-09-25T03:28:25.553Z,89.15
2022-09-25T03:32:27.228Z,89.54
2022-09-25T03:36:30.243Z,89.85
2022-09-25T03:40:32.759Z,89.58
2022-09-25T03:44:34.571Z,90.05
2022-09-25T03:48:36.827Z,89.51
2022-09-25T03:52:38.950Z,89.99
2022-09-25T03:56:40.662Z,89.47
2022-09-25T04:00:43.171Z,89.91
2022-09-25T04:04:45.895Z,89.42
2022-09-25T04:08:48.492Z,89.66
2022-09-25T04:12:55.754Z,89.51
2022-09-25T04:16:57.563Z,89.81
2022-09-25T04:21:04.423Z,89.76
2022-09-25T04:25:07.175Z,90.15
2022-09-25T04:29:09.230Z,90.03
2022-09-25T04:33:29.729Z,89.72
2022-09-25T04:37:31.387Z,89.69
2022-09-25T04:41:33.271Z,89.52
2022-09-25T04:45:37.086Z,89.19
2022-09-25T04:49:39.162Z,89.33
2022-09-25T04:53:41.648Z,88.76
2022-09-25T04:57:58.218Z,89.24
2022-09-25T05:02:00.422Z,89.11
2022-09-25T05:06:02.130Z,89.40
2022-09-25T05:10:04.086Z,89.12
2022-09-25T05:14:05.950Z,89.07
2022-09-25T05:18:15.871Z,89.38
2022-09-25T05:22:17.489Z,89.27
2022-09-25T05:26:19.152Z,89.77
2022-09-25T05:30:20.991Z,89.68
2022-09-25T05:34:22.631Z,89.52
2022-09-25T05:38:24.284Z,89.35
2022-09-25T05:42:25.937Z,89.06
2022-09-25T05:46:27.671Z,89.44
2022-09-25T05:50:29.574Z,88.97
2022-09-25T05:54:31.305Z,89.27
2022-09-25T05:58:35.231Z,89.03
2022-09-25T06:02:37.025Z,88.74
2022-09-25T06:06:38.747Z,88.87
2022-09-25T06:10:41.584Z,88.61
2022-09-25T06:14:43.295Z,88.02
2022-09-25T06:18:46.556Z,87.90
2022-09-25T06:22:58.326Z,88.05
2022-09-25T06:26:59.980Z,87.93
2022-09-25T06:31:03.255Z,87.87
2022-09-25T06:35:05.412Z,87.98
2022-09-25T06:39:07.131Z,88.23
2022-09-25T06:43:16.514Z,87.84
2022-09-25T06:47:19.657Z,87.64
2022-09-25T06:51:24.836Z,87.86
2022-09-25T06:55:27.883Z,88.08
2022-09-25T06:59:29.615Z,88.22
2022-09-25T07:03:47.537Z,88.12
2022-09-25T07:07:49.229Z,88.07
2022-09-25T07:11:53.067Z,88.26
2022-09-25T07:15:56.750Z,88.28
2022-09-25T07:19:58.424Z,88.00
2022-09-25T07:24:00.139Z,87.85
2022-09-25T07:28:02.022Z,87.70
2022-09-25T07:32:04.831Z,87.92
2022-09-25T07:36:06.951Z,87.36
2022-09-25T07:40:12.087Z,87.39
2022-09-25T07:44:36.283Z,87.49
2022-09-25T07:48:36.409Z,87.33
2022-09-25T07:52:38.086Z,86.63
2022-09-25T07:56:39.973Z,86.10
2022-09-25T08:00:41.761Z,85.87
2022-09-25T08:04:43.420Z,85.37
2022-09-25T08:08:45.093Z,84.90
2022-09-25T08:12:47.164Z,84.05
2022-09-25T08:16:49.785Z,82.96
2022-09-25T08:20:52.570Z,81.47
2022-09-25T08:24:54.246Z,80.75
2022-09-25T08:28:56.917Z,79.80
2022-09-25T08:32:58.765Z,79.43
2022-09-25T08:37:00.433Z,79.74
2022-09-25T08:41:14.827Z,79.09
2022-09-25T08:45:46.809Z,78.95
2022-09-25T08:50:03.692Z,79.22
2022-09-25T08:54:06.081Z,78.73
2022-09-25T08:58:10.407Z,78.35
2022-09-25T09:02:21.672Z,77.59
2022-09-25T09:06:27.217Z,77.55
2022-09-25T09:10:43.435Z,76.72
2022-09-25T09:14:48.416Z,76.17
2022-09-25T09:18:50.490Z,75.82
2022-09-25T09:22:53.357Z,74.72
2022-09-25T09:27:16.856Z,73.61
2022-09-25T09:31:27.475Z,73.80
2022-09-25T09:35:41.669Z,73.08
2022-09-25T09:40:20.993Z,72.13
2022-09-25T09:44:53.173Z,71.96
2022-09-25T09:49:55.477Z,70.58
2022-09-25T09:54:21.493Z,70.42
2022-09-25T09:58:29.226Z,70.34
2022-09-25T10:02:40.746Z,69.72
2022-09-25T10:06:58.176Z,69.37
2022-09-25T10:11:00.463Z,68.47
2022-09-25T10:15:04.988Z,68.58
2022-09-25T10:19:13.512Z,68.24
2022-09-25T10:23:24.292Z,67.74
2022-09-25T10:27:47.910Z,67.36
2022-09-25T10:31:59.042Z,67.62
2022-09-25T10:36:03.777Z,67.45
2022-09-25T10:40:08.725Z,67.14
2022-09-25T10:44:34.612Z,67.08
2022-09-25T10:48:56.757Z,66.50
2022-09-25T10:53:04.191Z,65.54
2022-09-25T10:57:18.344Z,64.73
2022-09-25T11:01:20.170Z,65.00
2022-09-25T11:05:28.514Z,64.36
2022-09-25T11:09:32.569Z,64.29
2022-09-25T11:13:45.945Z,63.23
2022-09-25T11:17:51.703Z,62.91
2022-09-25T11:22:08.262Z,62.81
2022-09-25T11:26:19.528Z,62.68
2022-09-25T11:30:23.125Z,63.67
2022-09-25T11:34:31.349Z,63.62
2022-09-25T11:39:12.633Z,64.25
2022-09-25T11:43:21.090Z,64.52
2022-09-25T11:47:33.169Z,64.48
2022-09-25T11:52:06.063Z,64.72
2022-09-25T11:56:18.688Z,64.84
2022-09-25T12:00:25.424Z,64.97
2022-09-25T12:04:56.122Z,64.60
2022-09-25T12:09:19.413Z,64.16
2022-09-25T12:13:28.074Z,63.61
2022-09-25T12:17:37.950Z,63.54
2022-09-25T12:21:48.658Z,63.36
2022-09-25T12:25:55.192Z,63.04
2022-09-25T12:30:08.542Z,63.39
2022-09-25T12:34:31.122Z,63.80
2022-09-25T12:38:51.115Z,63.91
2022-09-25T12:42:55.641Z,63.84
2022-09-25T12:47:09.187Z,63.39
2022-09-25T12:51:21.755Z,63.54
2022-09-25T12:55:26.386Z,64.18
2022-09-25T12:59:36.332Z,64.99
2022-09-25T13:04:03.245Z,64.72
2022-09-25T13:08:06.817Z,64.47
2022-09-25T13:12:35.035Z,63.69
2022-09-25T13:16:37.941Z,63.90
2022-09-25T13:20:42.095Z,64.33
2022-09-25T13:24:56.516Z,64.48
2022-09-25T13:29:14.742Z,64.42
2022-09-25T13:33:20.805Z,64.46
2022-09-25T13:37:28.425Z,63.74
2022-09-25T13:41:30.987Z,63.79
2022-09-25T13:45:34.718Z,63.94
2022-09-25T13:49:36.493Z,63.84
2022-09-25T13:53:50.681Z,63.71
2022-09-25T13:57:58.664Z,64.32
2022-09-25T14:02:33.834Z,63.31
2022-09-25T14:06:39.234Z,63.48
2022-09-25T14:10:47.424Z,63.42
2022-09-25T14:15:28.296Z,62.77
2022-09-25T14:19:32.939Z,62.55
2022-09-25T14:23:47.952Z,62.55
2022-09-25T14:27:53.051Z,62.22
2022-09-25T14:32:42.769Z,62.60
2022-09-25T14:37:00.598Z,63.70
2022-09-25T14:41:33.339Z,64.29
2022-09-25T14:46:04.463Z,65.08
2022-09-25T14:50:20.529Z,65.44
2022-09-25T14:54:25.950Z,65.57
2022-09-25T14:58:32.528Z,65.64
2022-09-25T15:02:39.880Z,65.77
2022-09-25T15:06:42.458Z,65.38
2022-09-25T15:10:44.587Z,65.57
2022-09-25T15:15:02.930Z,65.65
2022-09-25T15:19:20.628Z,65.57
2022-09-25T15:23:23.100Z,66.08
2022-09-25T15:27:27.068Z,66.03
2022-09-25T15:31:37.208Z,65.97
2022-09-25T15:35:38.963Z,65.43
2022-09-25T15:39:42.320Z,65.22
2022-09-25T15:43:44.201Z,65.23
2022-09-25T15:47:54.071Z,64.71
2022-09-25T15:52:02.262Z,64.76
2022-09-25T15:56:14.158Z,64.76
2022-09-25T16:00:43.374Z,65.23
2022-09-25T16:04:52.794Z,65.42
2022-09-25T16:09:10.869Z,65.65
2022-09-25T16:13:25.039Z,65.67
2022-09-25T16:17:40.430Z,65.58
2022-09-25T16:21:42.271Z,66.50
2022-09-25T16:25:45.007Z,66.49
2022-09-25T16:29:46.735Z,67.30
2022-09-25T16:33:51.899Z,67.25
2022-09-25T16:37:54.591Z,67.43
2022-09-25T16:41:56.678Z,68.02
2022-09-25T16:46:04.302Z,67.82
2022-09-25T16:50:06.262Z,68.34
2022-09-25T16:54:10.048Z,68.21
2022-09-25T16:58:11.724Z,68.19
2022-09-25T17:02:33.138Z,68.61
2022-09-25T17:06:40.692Z,68.44
2022-09-25T17:10:42.529Z,68.99
2022-09-25T17:14:44.295Z,69.13
2022-09-25T17:18:46.017Z,69.74
2022-09-25T17:22:47.665Z,70.00
2022-09-25T17:26:51.753Z,70.22
2022-09-25T17:30:54.223Z,70.65
2022-09-25T17:34:58.398Z,71.36
2022-09-25T17:39:00.113Z,71.42
2022-09-25T17:43:01.955Z,71.84
2022-09-25T17:47:04.341Z,72.02
2022-09-25T17:51:18.151Z,72.28
2022-09-25T17:55:21.177Z,72.53
2022-09-25T17:59:22.885Z,72.62
2022-09-25T18:03:25.022Z,72.59
2022-09-25T18:07:31.232Z,72.52
2022-09-25T18:11:35.290Z,73.05
2022-09-25T18:15:41.564Z,73.04
2022-09-25T18:20:01.580Z,73.49
2022-09-25T18:24:03.825Z,73.21
2022-09-25T18:28:05.707Z,73.55
2022-09-25T18:32:08.295Z,74.33
2022-09-25T18:36:09.955Z,74.39
2022-09-25T18:40:17.284Z,74.88
2022-09-25T18:44:20.378Z,74.75
2022-09-25T18:48:22.547Z,74.90
2022-09-25T18:52:24.909Z,75.13
2022-09-25T18:56:28.280Z,75.55
2022-09-25T19:00:30.408Z,75.74
2022-09-25T19:04:32.405Z,76.08
2022-09-25T19:08:34.252Z,75.99
2022-09-25T19:12:35.941Z,76.05
2022-09-25T19:16:38.744Z,76.24
2022-09-25T19:20:54.659Z,75.95
2022-09-25T19:24:56.838Z,76.06
2022-09-25T19:28:59.837Z,76.35
2022-09-25T19:33:01.747Z,76.43
2022-09-25T19:37:03.441Z,77.12
2022-09-25T19:41:12.057Z,77.86
2022-09-25T19:45:14.194Z,77.70
2022-09-25T19:49:17.291Z,78.14
2022-09-25T19:53:19.073Z,78.69
2022-09-25T19:57:20.759Z,78.71
2022-09-25T20:01:30.353Z,78.80
2022-09-25T20:05:39.402Z,79.06
2022-09-25T20:09:41.555Z,79.32
2022-09-25T20:13:43.590Z,79.65
2022-09-25T20:17:45.450Z,79.76
2022-09-25T20:21:47.841Z,79.43
2022-09-25T20:25:49.550Z,79.54
2022-09-25T20:29:51.531Z,79.68
2022-09-25T20:33:53.405Z,79.27
2022-09-25T20:37:55.161Z,79.39
2022-09-25T20:41:56.884Z,79.51
2022-09-25T20:46:04.773Z,79.23
2022-09-25T20:50:07.679Z,79.22
2022-09-25T20:54:10.193Z,79.01
2022-09-25T20:58:11.990Z,78.76
2022-09-25T21:02:14.055Z,78.79
2022-09-25T21:06:21.951Z,79.10
2022-09-25T21:10:23.854Z,79.22
2022-09-25T21:14:28.057Z,79.20
2022-09-25T21:18:30.042Z,78.75
2022-09-25T21:22:31.718Z,79.23
2022-09-25T21:26:34.054Z,78.75
2022-09-25T21:30:35.782Z,78.87
2022-09-25T21:34:37.545Z,79.02
2022-09-25T21:38:39.534Z,79.39
2022-09-25T21:42:41.213Z,79.48
2022-09-25T21:46:44.010Z,79.34
2022-09-25T21:50:58.229Z,79.13
2022-09-25T21:55:00.127Z,79.21
2022-09-25T21:59:08.276Z,79.34
2022-09-25T22:03:10.817Z,79.17
2022-09-25T22:07:12.633Z,79.25
2022-09-25T22:11:14.940Z,79.15
2022-09-25T22:15:17.950Z,78.99
2022-09-25T22:19:22.900Z,79.33
2022-09-25T22:23:25.161Z,79.38
2022-09-25T22:27:26.791Z,79.49
2022-09-25T22:31:30.603Z,79.82
2022-09-25T22:35:32.248Z,80.09
2022-09-25T22:39:33.883Z,80.31
2022-09-25T22:43:35.668Z,80.59
2022-09-25T22:47:37.318Z,80.40
2022-09-25T22:51:39.013Z,80.92
2022-09-25T22:55:40.671Z,81.27
2022-09-25T22:59:42.358Z,81.20
2022-09-25T23:03:43.995Z,81.54
2022-09-25T23:07:45.682Z,81.33
2022-09-25T23:11:47.614Z,82.04
2022-09-25T23:15:49.318Z,82.11
2022-09-25T23:19:51.011Z,81.84
2022-09-25T23:24:00.940Z,82.63
2022-09-25T23:28:02.713Z,82.40
2022-09-25T23:32:08.098Z,82.65
2022-09-25T23:36:20.283Z,83.02
2022-09-25T23:40:22.039Z,82.92
2022-09-25T23:44:23.772Z,83.04
2022-09-25T23:48:25.514Z,83.19
2022-09-25T23:52:27.335Z,83.02
2022-09-25T23:56:31.975Z,83.70
